Date,TemperatureHighF,TemperatureAvgF,TemperatureLowF,DewpointHighF,DewpointAvgF,DewpointLowF,HumidityHigh,HumidityAvg,HumidityLow,PressureMaxIn,PressureMinIn,WindSpeedMaxMPH,WindSpeedAvgMPH,GustSpeedMaxMPH,PrecipitationSumIn
2013-9-1,81,72,66,71,67,64,92,84,70,29.90,29.75,1,0,6,0.00
2013-9-2,70,66,63,67,64,61,93,92,90,29.88,29.74,1,0,11,3.95
2013-9-3,75,70,64,69,66,62,94,89,79,29.76,29.68,9,0,9,0.33
2013-9-4,80,68,59,63,59,56,93,75,45,29.88,29.73,10,0,10,0.01
2013-9-5,66,61,50,59,55,46,90,80,59,30.12,29.84,7,0,7,0.34
2013-9-6,66,58,44,52,46,40,88,67,41,30.23,30.03,13,1,13,0.00
2013-9-7,76,61,48,62,52,45,90,74,51,30.03,29.82,7,0,7,0.00
2013-9-8,67,60,50,58,50,41,89,69,46,30.06,29.70,4,1,20,0.07
2013-9-9,67,58,42,53,48,39,88,70,47,30.20,30.06,10,1,10,0.00
2013-9-10,66,60,54,61,55,49,91,85,77,30.11,30.01,7,0,7,0.02
2013-9-11,88,72,61,76,67,58,92,83,63,30.04,29.88,10,0,17,0.77
2013-9-12,75,68,65,68,65,62,93,91,77,29.98,29.66,5,0,9,1.27
2013-9-13,66,66,65,64,64,63,93,93,93,29.67,29.58,3,0,3,0.11
2013-9-14,68,60,53,59,54,50,91,82,66,30.02,29.72,1,0,10,0.00
2013-9-15,64,57,47,56,51,44,92,81,61,30.13,30.01,2,0,11,0.01
2013-9-16,67,60,46,56,52,37,89,78,60,30.25,29.97,7,0,13,0.01
2013-9-17,66,54,39,49,43,35,90,67,45,30.41,30.26,10,1,10,0.00
2013-9-18,70,55,42,52,46,39,92,73,43,30.29,30.10,7,0,7,0.00
2013-9-19,72,57,46,54,48,43,90,74,46,30.12,30.01,2,0,9,0.01
2013-9-20,73,59,49,58,51,46,90,78,52,30.10,30.02,1,0,6,0.00
2013-9-21,64,59,55,59,56,52,92,89,79,30.02,29.76,3,1,15,0.01
2013-9-22,70,63,53,63,57,45,92,81,59,29.76,29.59,2,1,14,0.39
2013-9-23,59,53,45,45,41,38,82,64,54,29.95,29.76,15,2,15,0.00
2013-9-24,58,50,44,45,41,39,85,73,53,29.93,29.82,9,1,13,0.00
2013-9-25,62,56,45,50,46,41,86,70,58,29.98,29.86,5,0,13,0.00
2013-9-26,68,56,45,53,47,41,88,74,57,30.13,29.98,10,1,10,0.00
2013-9-27,71,60,52,57,52,49,89,75,54,30.24,30.12,5,0,5,0.00
2013-9-28,72,58,49,57,51,46,92,79,52,30.33,30.24,5,0,6,0.00
2013-9-29,63,53,46,54,48,43,92,86,64,30.27,30.13,7,0,7,0.01
2013-9-30,63,52,41,52,47,38,92,84,62,30.14,29.97,6,0,6,0.01